createdAt,value
2022-11-10T00:00:00.000Z,11.26
2022-11-10T00:15:00.000Z,11.22
2022-11-10T00:30:00.000Z,10.47
2022-11-10T00:45:00.000Z,10.6
2022-11-10T01:00:00.000Z,11.86
2022-11-10T01:15:00.000Z,10.92
2022-11-10T01:30:00.000Z,11.32
2022-11-10T01:45:00.000Z,11.45
2022-11-10T02:00:00.000Z,11.92
2022-11-10T02:15:00.000Z,10.98
2022-11-10T02:30:00.000Z,10.35
2022-11-10T02:45:00.000Z,10.42
2022-11-10T03:00:00.000Z,10.38
2022-11-10T03:15:00.000Z,15.3
2022-11-10T03:30:00.000Z,13.64
2022-11-10T03:45:00.000Z,10.24
2022-11-10T04:00:00.000Z,10.32
2022-11-10T04:15:00.000Z,10.51
2022-11-10T04:30:00.000Z,10.92
2022-11-10T04:45:00.000Z,10.94
2022-11-10T05:00:00.000Z,10.55
2022-11-10T05:15:00.000Z,10.67
2022-11-10T05:30:00.000Z,12.32
2022-11-10T05:45:00.000Z,14.26
2022-11-10T06:00:00.000Z,11.12
2022-11-10T06:15:00.000Z,9.27
2022-11-10T06:30:00.000Z,11.23
2022-11-10T06:45:00.000Z,11.46
2022-11-10T07:00:00.000Z,17.8
2022-11-10T07:15:00.000Z,14.86
2022-11-10T07:30:00.000Z,18.61
2022-11-10T07:45:00.000Z,12.22
2022-11-10T08:00:00.000Z,14.06
2022-11-10T08:15:00.000Z,12.7
2022-11-10T08:30:00.000Z,10.19
2022-11-10T08:45:00.000Z,10.01
2022-11-10T09:00:00.000Z,9.35
2022-11-10T09:15:00.000Z,9.61
2022-11-10T09:30:00.000Z,12.96
2022-11-10T09:45:00.000Z,15.99
2022-11-10T10:15:00.000Z,11.42
2022-11-10T10:30:00.000Z,10.47
2022-11-10T10:45:00.000Z,11.86
2022-11-10T11:00:00.000Z,11.95
2022-11-10T11:15:00.000Z,10.22
2022-11-10T11:30:00.000Z,8.48
2022-11-10T11:45:00.000Z,9.92
2022-11-10T12:00:00.000Z,10.08
2022-11-10T12:15:00.000Z,10.24
2022-11-10T12:30:00.000Z,10.16
2022-11-10T12:45:00.000Z,12.16
2022-11-10T13:00:00.000Z,9.61
2022-11-10T13:15:00.000Z,10.3
2022-11-10T13:30:00.000Z,9.89
2022-11-10T13:45:00.000Z,8.47
2022-11-10T14:00:00.000Z,8.6
2022-11-10T14:15:00.000Z,12.12
2022-11-10T14:30:00.000Z,8.86
2022-11-10T14:45:00.000Z,8.34
2022-11-10T15:00:00.000Z,9.76
2022-11-10T15:15:00.000Z,10.6
2022-11-10T15:30:00.000Z,12.38
2022-11-10T15:45:00.000Z,10.26
2022-11-10T16:00:00.000Z,11.68
2022-11-10T16:15:00.000Z,14.38
2022-11-10T16:30:00.000Z,14.61
2022-11-10T16:45:00.000Z,14.26
2022-11-10T17:00:00.000Z,14.76
2022-11-10T17:15:00.000Z,17.16
2022-11-10T17:30:00.000Z,17.87
2022-11-10T17:45:00.000Z,17.33
2022-11-10T18:00:00.000Z,21.82
2022-11-10T18:15:00.000Z,20.58
2022-11-10T18:30:00.000Z,21.59
2022-11-10T18:45:00.000Z,16.18
2022-11-10T19:00:00.000Z,18.46
2022-11-10T19:15:00.000Z,21.09
2022-11-10T19:30:00.000Z,19.76
2022-11-10T19:45:00.000Z,18.06
2022-11-10T20:00:00.000Z,18.64
2022-11-10T20:15:00.000Z,20.04
2022-11-10T20:30:00.000Z,19.48
2022-11-10T20:45:00.000Z,19.04
2022-11-10T21:00:00.000Z,18.62
2022-11-10T21:15:00.000Z,22.93
2022-11-10T21:30:00.000Z,21.47
2022-11-10T21:45:00.000Z,19.46
2022-11-10T22:00:00.000Z,14.87
2022-11-10T22:15:00.000Z,14.18
2022-11-10T22:30:00.000Z,13.3
2022-11-10T22:45:00.000Z,14.86
2022-11-10T23:00:00.000Z,16.21
2022-11-10T23:15:00.000Z,16.06
2022-11-10T23:30:00.000Z,15.47
2022-11-10T23:45:00.000Z,16.55
